Time;durP1;ratioP1;P1;durP2;ratioP2;P2;SDS_P1;SDS_P2;PMS_P1;PMS_P2;Temp;Humidity;BMP_temperature;BMP_pressure;BME280_temperature;BME280_humidity;BME280_pressure;Samples;Min_cycle;Max_cycle;Signal;HPM_P1;HPM_P2
2022/08/19 00:01:16;;;;;;;28.87;26.50;;;24.70;57.30;;;;;;20491;6863;306804;-85
2022/08/19 00:03:41;;;;;;;28.13;26.10;;;24.70;58.30;;;;;;20490;6863;279409;-85
2022/08/19 00:06:07;;;;;;;25.23;23.30;;;24.90;57.90;;;;;;20682;6863;118133;-85
2022/08/19 00:08:32;;;;;;;27.20;25.25;;;24.70;57.60;;;;;;20478;6863;312156;-85
2022/08/19 00:10:58;;;;;;;26.40;24.40;;;24.60;58.30;;;;;;20487;6863;308824;-85
2022/08/19 00:13:23;;;;;;;26.00;23.90;;;24.70;57.90;;;;;;20700;6863;117786;-85
2022/08/19 00:15:49;;;;;;;23.08;21.48;;;24.50;57.80;;;;;;20489;6863;280198;-85
2022/08/19 00:18:14;;;;;;;28.33;25.97;;;24.50;57.80;;;;;;20495;6863;292809;-85
2022/08/19 00:20:40;;;;;;;23.70;22.00;;;24.60;58.30;;;;;;20685;6863;117894;-86
2022/08/19 00:23:06;;;;;;;26.30;24.50;;;24.40;57.90;;;;;;20488;6863;308788;-86
2022/08/19 00:25:31;;;;;;;24.07;21.97;;;24.40;58.30;;;;;;20693;6863;118080;-86
2022/08/19 00:27:57;;;;;;;26.50;24.50;;;24.20;58.20;;;;;;20471;6863;309260;-85
2022/08/19 00:30:22;;;;;;;24.53;22.43;;;24.20;58.30;;;;;;20695;6863;120456;-86
2022/08/19 00:32:49;;;;;;;21.13;19.47;;;23.80;58.60;;;;;;20687;6863;117400;-86
2022/08/19 00:35:15;;;;;;;22.67;20.87;;;23.70;58.50;;;;;;20701;6863;118142;-85
2022/08/19 00:37:43;;;;;;;25.43;23.50;;;23.70;60.50;;;;;;20482;6863;307127;-85
2022/08/19 00:40:08;;;;;;;26.77;24.80;;;23.60;59.80;;;;;;20469;6863;279680;-85
2022/08/19 00:42:33;;;;;;;28.02;26.02;;;23.90;59.50;;;;;;20486;6863;314016;-84
2022/08/19 00:44:59;;;;;;;28.93;26.83;;;24.10;59.10;;;;;;20508;6861;283384;-85
2022/08/19 00:47:24;;;;;;;29.33;27.23;;;24.20;59.20;;;;;;20489;6862;308623;-85
2022/08/19 00:49:51;;;;;;;23.53;21.83;;;24.30;59.00;;;;;;20679;6863;117773;-85
2022/08/19 00:52:26;;;;;;;27.95;25.55;;;24.10;58.90;;;;;;20693;6863;118212;-84
2022/08/19 00:54:51;;;;;;;27.43;25.20;;;23.80;59.50;;;;;;20692;6863;117766;-85
2022/08/19 00:57:16;;;;;;;30.50;28.12;;;23.40;59.90;;;;;;20488;6863;308804;-85
2022/08/19 00:59:42;;;;;;;31.87;29.33;;;23.60;61.00;;;;;;20483;6863;309183;-85
2022/08/19 01:02:08;;;;;;;27.10;25.08;;;23.90;60.60;;;;;;20460;6863;309621;-86
2022/08/19 01:04:33;;;;;;;31.47;28.97;;;24.10;58.80;;;;;;20484;6863;337917;-86
2022/08/19 01:06:59;;;;;;;23.52;21.73;;;24.30;59.30;;;;;;20683;6863;118277;-86
2022/08/19 01:09:24;;;;;;;27.97;25.67;;;24.10;59.00;;;;;;20695;6863;117864;-86
2022/08/19 01:11:50;;;;;;;27.87;25.75;;;23.70;59.20;;;;;;20464;6863;339475;-87
2022/08/19 01:14:16;;;;;;;26.43;24.23;;;23.80;60.20;;;;;;20693;6863;117875;-86
2022/08/19 01:16:42;;;;;;;26.52;24.42;;;23.40;60.00;;;;;;20694;6863;118546;-85
2022/08/19 01:19:10;;;;;;;26.57;24.37;;;23.40;60.00;;;;;;20695;6863;122014;-85
2022/08/19 01:21:44;;;;;;;20.87;19.10;;;23.20;60.40;;;;;;20670;6863;117089;-84
2022/08/19 01:24:09;;;;;;;21.33;19.63;;;23.00;60.30;;;;;;20645;6863;118609;-85
2022/08/19 01:26:39;;;;;;;22.40;20.57;;;22.70;60.20;;;;;;20701;6863;120898;-85
2022/08/19 01:29:04;;;;;;;25.90;23.87;;;22.60;60.10;;;;;;20480;6863;337161;-85
2022/08/19 01:31:30;;;;;;;23.03;21.20;;;22.90;60.80;;;;;;20483;6863;337603;-85
2022/08/19 01:33:55;;;;;;;21.47;19.60;;;23.30;59.30;;;;;;20686;6863;118468;-85
2022/08/19 01:36:22;;;;;;;25.63;23.63;;;23.40;59.90;;;;;;20496;6863;278826;-85
2022/08/19 01:38:48;;;;;;;20.80;19.13;;;23.30;59.90;;;;;;20698;6863;117744;-85
2022/08/19 01:41:13;;;;;;;21.03;19.40;;;23.30;59.70;;;;;;20727;6863;120754;-84
2022/08/19 01:43:38;;;;;;;21.95;20.35;;;23.10;59.80;;;;;;20554;6863;308094;-84
2022/08/19 01:46:04;;;;;;;20.90;19.10;;;23.20;59.40;;;;;;20716;6863;117149;-86
2022/08/19 01:48:35;;;;;;;23.80;21.90;;;23.20;59.10;;;;;;20501;6863;297526;-85
2022/08/19 01:51:01;;;;;;;21.57;19.77;;;23.30;59.30;;;;;;20708;6863;117946;-85
2022/08/19 01:53:27;;;;;;;21.93;20.07;;;23.30;59.00;;;;;;20704;6863;119850;-85
2022/08/19 01:55:52;;;;;;;24.57;22.57;;;23.10;59.30;;;;;;20470;6861;311723;-85
2022/08/19 01:58:18;;;;;;;23.00;21.27;;;23.20;59.70;;;;;;20496;6862;338471;-85
2022/08/19 02:00:43;;;;;;;23.27;21.52;;;23.50;58.90;;;;;;20473;6863;311157;-84
2022/08/19 02:03:11;;;;;;;21.07;19.20;;;23.60;57.70;;;;;;20702;6863;120751;-85
2022/08/19 02:05:35;;;;;;;21.13;19.43;;;23.50;57.50;;;;;;20691;6863;118012;-85
2022/08/19 02:08:01;;;;;;;20.93;19.33;;;23.30;58.10;;;;;;20679;6863;118424;-85
2022/08/19 02:10:26;;;;;;;21.60;19.80;;;23.00;58.40;;;;;;20700;6863;117860;-85
2022/08/19 02:12:52;;;;;;;22.23;20.48;;;22.80;58.70;;;;;;20483;6863;310780;-85
2022/08/19 02:15:19;;;;;;;24.53;22.73;;;23.10;59.10;;;;;;20494;6863;308667;-85
2022/08/19 02:17:43;;;;;;;21.83;20.13;;;23.40;58.60;;;;;;20687;6863;120831;-85
2022/08/19 02:20:09;;;;;;;22.47;20.47;;;23.30;58.50;;;;;;20682;6863;121896;-85
2022/08/19 02:22:35;;;;;;;24.97;22.97;;;23.10;59.00;;;;;;20476;6863;310059;-85
2022/08/19 02:25:00;;;;;;;22.47;20.63;;;23.30;59.50;;;;;;20696;6863;118343;-84
2022/08/19 02:27:26;;;;;;;22.27;20.37;;;23.20;59.20;;;;;;20686;6863;119098;-85
2022/08/19 02:29:51;;;;;;;22.40;20.55;;;23.00;59.40;;;;;;20680;6863;118188;-85
2022/08/19 02:32:18;;;;;;;25.23;23.33;;;22.80;59.80;;;;;;20484;6863;280150;-85
2022/08/19 02:34:42;;;;;;;26.63;24.60;;;23.00;60.50;;;;;;20496;6863;295252;-84
2022/08/19 02:38:24;;;;;;;23.43;21.53;;;23.20;59.60;;;;;;20694;6863;118367;-85
2022/08/19 02:39:37;;;;;;;26.57;24.57;;;23.20;59.60;;;;;;20418;6863;311635;-84
2022/08/19 02:42:02;;;;;;;24.33;21.97;;;23.30;59.70;;;;;;20680;6863;118648;-85
2022/08/19 02:44:28;;;;;;;26.08;24.10;;;23.20;59.60;;;;;;20485;6863;309190;-85
2022/08/19 02:46:55;;;;;;;25.03;23.13;;;23.20;59.60;;;;;;20484;6863;278928;-85
2022/08/19 02:49:19;;;;;;;26.35;24.08;;;23.50;60.00;;;;;;20482;6863;279590;-85
2022/08/19 02:51:45;;;;;;;23.50;21.57;;;23.50;59.00;;;;;;20695;6863;117921;-85
2022/08/19 02:54:12;;;;;;;26.87;24.67;;;23.50;58.80;;;;;;20465;6863;282849;-85
2022/08/19 02:56:37;;;;;;;26.65;24.52;;;23.50;59.10;;;;;;20480;6863;311247;-85
2022/08/19 02:59:02;;;;;;;24.63;22.53;;;23.60;58.80;;;;;;20690;6863;118083;-85
2022/08/19 03:01:28;;;;;;;23.45;21.55;;;23.40;58.80;;;;;;20682;6863;118667;-85
2022/08/19 03:03:53;;;;;;;22.65;20.85;;;23.10;59.40;;;;;;20663;6863;119494;-85
2022/08/19 03:06:20;;;;;;;22.77;20.88;;;22.80;59.90;;;;;;20686;6863;117975;-85
2022/08/19 03:08:46;;;;;;;23.57;21.57;;;22.60;60.30;;;;;;20694;6861;117679;-85
2022/08/19 03:11:15;;;;;;;23.80;21.77;;;22.30;61.00;;;;;;20691;6862;118354;-86
2022/08/19 03:13:43;;;;;;;27.30;24.90;;;22.30;61.00;;;;;;20481;6863;291431;-85
2022/08/19 03:16:06;;;;;;;24.23;22.33;;;22.60;62.00;;;;;;20670;6863;117818;-85
2022/08/19 03:18:32;;;;;;;24.00;22.00;;;22.40;62.20;;;;;;20695;6863;117953;-85
2022/08/19 03:20:58;;;;;;;23.90;21.90;;;22.40;61.50;;;;;;20702;6863;117078;-85
2022/08/19 03:23:24;;;;;;;27.00;24.90;;;22.50;62.00;;;;;;20495;6863;308852;-84
2022/08/19 03:25:50;;;;;;;24.07;22.10;;;22.50;62.00;;;;;;20685;6863;118183;-85
2022/08/19 03:28:15;;;;;;;24.23;22.00;;;22.60;61.60;;;;;;20692;6863;117952;-85
2022/08/19 03:30:41;;;;;;;23.70;21.70;;;22.50;61.80;;;;;;20697;6863;118022;-85
2022/08/19 03:33:06;;;;;;;29.37;26.97;;;22.30;62.00;;;;;;20478;6863;310089;-85
2022/08/19 03:35:32;;;;;;;29.83;27.27;;;22.60;62.20;;;;;;20476;6863;341434;-85
2022/08/19 03:37:59;;;;;;;26.70;24.33;;;22.90;61.40;;;;;;20679;6863;118902;-85
2022/08/19 03:40:25;;;;;;;26.87;24.57;;;22.90;61.10;;;;;;20693;6863;118329;-85
2022/08/19 03:42:50;;;;;;;26.60;24.20;;;22.70;61.40;;;;;;20710;6863;118174;-85
2022/08/19 03:45:15;;;;;;;44.13;40.07;;;22.40;61.70;;;;;;20752;6863;116951;-85
2022/08/19 03:47:41;;;;;;;35.40;32.45;;;22.30;62.10;;;;;;20476;6863;311849;-86
2022/08/19 03:50:08;;;;;;;28.07;25.67;;;22.60;61.70;;;;;;20680;6863;118042;-85
2022/08/19 03:52:32;;;;;;;24.23;22.23;;;22.60;61.50;;;;;;20704;6863;119727;-85
2022/08/19 03:54:58;;;;;;;26.37;24.07;;;22.50;61.70;;;;;;20703;6863;117771;-85
2022/08/19 03:57:23;;;;;;;30.20;27.52;;;22.40;61.80;;;;;;20490;6863;308058;-85
2022/08/19 03:59:49;;;;;;;26.02;23.85;;;22.60;62.00;;;;;;20494;6863;337530;-85
2022/08/19 04:02:15;;;;;;;30.47;27.97;;;23.00;60.90;;;;;;20500;6863;278024;-85
2022/08/19 04:04:40;;;;;;;29.98;27.48;;;23.30;60.40;;;;;;20489;6863;278639;-85
2022/08/19 04:07:06;;;;;;;22.85;21.23;;;23.50;59.80;;;;;;20686;6863;118366;-88
2022/08/19 04:09:31;;;;;;;26.65;24.50;;;23.30;59.80;;;;;;20477;6863;295156;-86
2022/08/19 04:11:57;;;;;;;27.30;24.93;;;23.30;59.30;;;;;;20666;6863;118445;-85
2022/08/19 04:14:24;;;;;;;29.67;27.27;;;23.30;59.90;;;;;;20479;6863;298283;-85
2022/08/19 04:16:49;;;;;;;25.37;23.20;;;23.30;59.90;;;;;;20693;6863;118347;-85
2022/08/19 04:19:14;;;;;;;26.83;24.17;;;23.20;59.90;;;;;;20696;6861;118368;-85
2022/08/19 04:21:40;;;;;;;25.10;23.13;;;22.90;60.20;;;;;;20476;6862;308819;-85
2022/08/19 04:24:05;;;;;;;25.70;23.70;;;23.00;59.80;;;;;;20453;6863;337704;-85
2022/08/19 04:26:34;;;;;;;25.53;23.63;;;23.30;59.20;;;;;;20484;6863;282627;-86
2022/08/19 04:29:00;;;;;;;24.80;22.73;;;23.60;58.50;;;;;;20696;6863;118189;-85
2022/08/19 04:31:29;;;;;;;24.70;22.52;;;23.40;58.40;;;;;;20674;6863;118043;-85
2022/08/19 04:33:57;;;;;;;25.63;23.47;;;23.10;58.90;;;;;;20676;6863;118437;-86
2022/08/19 04:36:23;;;;;;;24.40;22.40;;;22.90;59.50;;;;;;20680;6863;118570;-85
2022/08/19 04:38:48;;;;;;;29.17;26.73;;;22.60;59.90;;;;;;20443;6863;309998;-85
2022/08/19 04:43:59;;;;;;;25.17;23.07;;;23.10;59.90;;;;;;20682;6863;118103;-85
2022/08/19 04:46:25;;;;;;;26.17;24.17;;;23.00;59.80;;;;;;20483;6863;309301;-85
2022/08/19 04:48:53;;;;;;;26.57;24.20;;;23.10;59.40;;;;;;20693;6863;117812;-85
2022/08/19 04:51:17;;;;;;;27.23;25.02;;;23.00;59.40;;;;;;20485;6863;308755;-85
2022/08/19 04:53:42;;;;;;;26.07;23.87;;;23.10;59.50;;;;;;20701;6863;117727;-85
2022/08/19 04:56:11;;;;;;;24.93;22.73;;;23.00;59.40;;;;;;20679;6863;118269;-85
2022/08/19 04:58:37;;;;;;;30.10;27.43;;;22.70;59.70;;;;;;20488;6863;309072;-85
2022/08/19 05:01:03;;;;;;;24.50;22.30;;;22.80;59.50;;;;;;20697;6863;118089;-85
2022/08/19 05:03:33;;;;;;;27.73;25.48;;;22.80;59.50;;;;;;20473;6863;308274;-85
2022/08/19 05:06:07;;;;;;;27.97;25.50;;;22.90;59.60;;;;;;20649;6863;122657;-85
2022/08/19 05:08:33;;;;;;;28.00;25.47;;;22.90;59.50;;;;;;20696;6863;118671;-86
2022/08/19 05:10:58;;;;;;;27.20;24.77;;;22.70;60.00;;;;;;20696;6863;118062;-85
2022/08/19 05:13:25;;;;;;;26.27;23.97;;;22.30;60.80;;;;;;20698;6863;118234;-86
2022/08/19 05:15:52;;;;;;;31.65;28.85;;;22.30;60.70;;;;;;20484;6863;299251;-85
2022/08/19 05:23:54;;;;;;;28.27;25.50;;;22.70;60.60;;;;;;20680;6863;119182;-86
2022/08/19 05:26:19;;;;;;;27.50;25.00;;;22.70;60.60;;;;;;20698;6863;119065;-86
2022/08/19 05:28:45;;;;;;;30.93;28.03;;;22.50;60.80;;;;;;20488;6863;309207;-86
2022/08/19 05:31:10;;;;;;;30.17;27.55;;;22.60;60.90;;;;;;20491;6861;310056;-86
2022/08/19 05:33:36;;;;;;;27.40;24.90;;;23.00;60.30;;;;;;20701;6862;118327;-87
2022/08/19 05:36:02;;;;;;;29.35;26.75;;;22.90;60.00;;;;;;20468;6863;308764;-86
2022/08/19 05:38:28;;;;;;;28.20;25.50;;;23.00;59.60;;;;;;20701;6863;117900;-86
2022/08/19 05:40:52;;;;;;;31.52;28.73;;;22.90;59.70;;;;;;20488;6863;308321;-86
2022/08/19 05:43:18;;;;;;;25.77;23.47;;;23.00;59.50;;;;;;20711;6863;118480;-86
2022/08/19 05:45:44;;;;;;;28.70;26.30;;;23.10;59.10;;;;;;20522;6863;279323;-86
2022/08/19 05:48:10;;;;;;;30.35;27.75;;;23.10;59.10;;;;;;20477;6863;308533;-85
2022/08/19 05:50:36;;;;;;;31.93;29.27;;;23.60;58.10;;;;;;20491;6863;291263;-86
2022/08/19 05:53:02;;;;;;;26.20;23.93;;;23.60;58.10;;;;;;20675;6863;120131;-86
2022/08/19 05:55:27;;;;;;;32.03;29.27;;;23.40;58.00;;;;;;20492;6863;309282;-86
2022/08/19 05:57:53;;;;;;;32.50;29.63;;;23.50;58.00;;;;;;20456;6863;294074;-87
2022/08/19 06:00:19;;;;;;;32.43;29.53;;;23.80;57.40;;;;;;20486;6863;308781;-84
2022/08/19 06:02:45;;;;;;;32.03;29.23;;;23.80;57.30;;;;;;20487;6863;307821;-84
2022/08/19 06:05:12;;;;;;;28.83;26.27;;;23.90;57.70;;;;;;20705;6863;117938;-84
2022/08/19 06:07:38;;;;;;;28.00;25.50;;;23.30;57.60;;;;;;20699;6863;118004;-84
2022/08/19 06:10:04;;;;;;;31.07;28.30;;;23.30;58.10;;;;;;20468;6863;309321;-84
2022/08/19 06:12:32;;;;;;;32.27;29.37;;;23.30;58.30;;;;;;20485;6863;308136;-85
2022/08/19 06:14:55;;;;;;;33.25;30.35;;;23.50;58.10;;;;;;20476;6863;307194;-85
2022/08/19 06:17:22;;;;;;;30.30;27.50;;;23.70;57.90;;;;;;20692;6863;118137;-85
2022/08/19 06:19:46;;;;;;;28.02;25.42;;;23.50;58.00;;;;;;20688;6863;117720;-86
2022/08/19 06:22:12;;;;;;;30.03;27.23;;;23.20;58.50;;;;;;20465;6863;281256;-87
2022/08/19 06:24:37;;;;;;;32.20;29.30;;;23.30;58.80;;;;;;20477;6863;311237;-86
2022/08/19 06:27:03;;;;;;;32.80;29.80;;;23.50;58.30;;;;;;20499;6863;279528;-86
2022/08/19 06:29:29;;;;;;;29.33;26.53;;;23.70;58.70;;;;;;20701;6863;117905;-86
2022/08/19 06:31:56;;;;;;;29.37;26.30;;;23.40;58.50;;;;;;20676;6863;151373;-87
2022/08/19 06:34:21;;;;;;;31.08;28.23;;;23.10;59.30;;;;;;20487;6863;281466;-88
2022/08/19 06:36:47;;;;;;;29.63;26.73;;;23.20;60.40;;;;;;20677;6863;120361;-89
2022/08/19 06:39:12;;;;;;;33.72;30.62;;;23.00;60.20;;;;;;20482;6863;309107;-86
2022/08/19 06:41:38;;;;;;;31.87;28.87;;;23.10;61.20;;;;;;20665;6863;118684;-87
2022/08/19 06:44:04;;;;;;;36.53;33.20;;;23.10;61.40;;;;;;20461;6861;283144;-87
2022/08/19 06:46:30;;;;;;;31.57;28.70;;;23.10;61.40;;;;;;20705;6862;117959;-86
2022/08/19 06:48:56;;;;;;;34.87;31.67;;;23.00;61.30;;;;;;20475;6863;279020;-87
2022/08/19 06:51:22;;;;;;;30.80;27.70;;;23.00;61.30;;;;;;20699;6863;117713;-87
2022/08/19 06:53:47;;;;;;;30.00;27.13;;;23.00;61.30;;;;;;20700;6863;118244;-87
2022/08/19 06:56:12;;;;;;;31.73;28.93;;;22.80;61.80;;;;;;20465;6863;308870;-87
2022/08/19 06:58:39;;;;;;;30.47;27.67;;;22.80;61.80;;;;;;20659;6863;117884;-87
2022/08/19 07:01:04;;;;;;;36.47;33.03;;;22.90;61.80;;;;;;20489;6863;304802;-87
2022/08/19 07:03:32;;;;;;;35.20;32.00;;;23.00;62.30;;;;;;20487;6863;280976;-87
2022/08/19 07:05:57;;;;;;;35.08;31.77;;;23.30;61.70;;;;;;20462;6863;312629;-87
2022/08/19 07:08:24;;;;;;;32.47;29.37;;;23.50;61.00;;;;;;20698;6863;119456;-87
2022/08/19 07:10:48;;;;;;;34.88;31.67;;;23.30;61.00;;;;;;20488;6863;307566;-90
2022/08/19 07:13:13;;;;;;;31.60;28.43;;;23.30;61.60;;;;;;20699;6863;118505;-87
2022/08/19 07:15:39;;;;;;;33.95;30.92;;;23.20;61.60;;;;;;20488;6863;279034;-87
2022/08/19 07:18:05;;;;;;;30.77;27.77;;;23.30;61.80;;;;;;20667;6863;118123;-87
2022/08/19 07:20:30;;;;;;;35.60;32.10;;;23.20;61.70;;;;;;20475;6863;280895;-87
2022/08/19 07:22:56;;;;;;;31.33;28.23;;;23.30;61.20;;;;;;20700;6863;118104;-87
2022/08/19 07:25:21;;;;;;;35.65;32.50;;;23.10;61.00;;;;;;20486;6863;309979;-87
2022/08/19 07:27:50;;;;;;;33.17;29.73;;;23.20;61.00;;;;;;20707;6863;122008;-87
2022/08/19 07:30:17;;;;;;;35.20;32.10;;;23.20;61.30;;;;;;20497;6863;282234;-88
2022/08/19 07:32:42;;;;;;;33.00;29.70;;;23.20;61.30;;;;;;20699;6863;118227;-87
2022/08/19 07:35:09;;;;;;;35.73;32.47;;;23.10;61.30;;;;;;20490;6863;341687;-87
2022/08/19 07:37:36;;;;;;;29.50;26.70;;;23.20;61.80;;;;;;20693;6863;117807;-87
2022/08/19 07:40:00;;;;;;;35.53;32.23;;;23.20;61.20;;;;;;20467;6863;279129;-87
2022/08/19 07:42:26;;;;;;;32.70;29.50;;;23.20;61.20;;;;;;20697;6863;118242;-87
2022/08/19 07:44:51;;;;;;;36.30;33.00;;;23.10;61.00;;;;;;20523;6863;280666;-86
2022/08/19 07:47:18;;;;;;;32.40;29.47;;;23.20;61.00;;;;;;20722;6863;117838;-88
2022/08/19 07:49:42;;;;;;;35.20;32.00;;;23.10;60.80;;;;;;20480;6863;311473;-87
2022/08/19 07:52:07;;;;;;;29.17;26.60;;;23.20;60.80;;;;;;20683;6863;117972;-88
2022/08/19 07:54:34;;;;;;;35.63;32.43;;;23.20;60.90;;;;;;20486;6861;279455;-87
2022/08/19 07:56:59;;;;;;;33.40;30.00;;;23.20;60.80;;;;;;20692;6862;118674;-87
2022/08/19 07:59:25;;;;;;;38.07;34.33;;;23.10;60.70;;;;;;20487;6863;279787;-87
2022/08/19 08:01:52;;;;;;;36.23;32.93;;;23.20;61.30;;;;;;20485;6863;286876;-88
2022/08/19 08:09:51;;;;;;;30.10;27.40;;;23.20;60.90;;;;;;20814;6636;118339;-90
2022/08/19 08:12:28;;;;;;;32.77;29.87;;;22.90;62.60;;;;;;20588;6763;279314;-89
2022/08/19 08:15:16;;;;;;;34.13;31.17;;;22.90;62.00;;;;;;20518;6805;290375;-88
2022/08/19 08:17:36;;;;;;;31.53;28.53;;;23.20;61.70;;;;;;20787;6763;117660;-87
2022/08/19 08:20:11;;;;;;;37.37;33.83;;;23.00;61.60;;;;;;20601;6767;307791;-87
2022/08/19 08:25:43;;;;;;;31.17;28.27;;;23.20;61.90;;;;;;20881;6755;117454;-88
2022/08/19 08:28:19;;;;;;;32.67;29.43;;;23.00;62.00;;;;;;20902;6755;120366;-88
2022/08/19 08:30:55;;;;;;;31.80;29.10;;;22.70;62.70;;;;;;20656;6755;277067;-88
2022/08/19 08:33:30;;;;;;;29.33;26.57;;;22.80;62.50;;;;;;20932;6740;122858;-88
2022/08/19 08:36:06;;;;;;;27.93;25.27;;;22.70;62.40;;;;;;20876;6740;118256;-88
2022/08/19 08:38:41;;;;;;;33.83;30.77;;;22.50;62.70;;;;;;20736;6740;275468;-88
2022/08/19 08:41:37;;;;;;;30.40;27.40;;;22.70;62.50;;;;;;20960;6740;116484;-88
2022/08/19 08:44:22;;;;;;;31.90;28.90;;;22.70;62.20;;;;;;20942;6740;117927;-87
2022/08/19 08:46:58;;;;;;;33.50;30.23;;;22.40;62.50;;;;;;20835;6740;118369;-88
2022/08/19 08:49:33;;;;;;;35.77;32.30;;;22.30;63.10;;;;;;20867;6755;116619;-88
2022/08/19 08:52:09;;;;;;;31.43;28.30;;;22.10;63.40;;;;;;20832;6759;129763;-88
2022/08/19 08:54:44;;;;;;;31.27;28.17;;;22.00;63.80;;;;;;20909;6755;117548;-88
2022/08/19 08:57:23;;;;;;;29.53;26.80;;;21.90;64.20;;;;;;20752;6740;118874;-88
2022/08/19 09:00:00;;;;;;;29.80;27.00;;;21.90;64.50;;;;;;20866;6756;117260;-88
2022/08/19 09:02:36;;;;;;;35.67;32.38;;;21.90;64.60;;;;;;20585;6772;305154;-88
2022/08/19 09:05:12;;;;;;;33.60;30.33;;;22.20;64.90;;;;;;20818;6743;68004;-88
2022/08/19 09:07:50;;;;;;;34.27;30.93;;;22.30;64.20;;;;;;20822;6749;117688;-88
2022/08/19 09:10:28;;;;;;;36.80;33.50;;;22.20;64.20;;;;;;20684;6760;296897;-88
2022/08/19 09:13:22;;;;;;;33.70;30.47;;;22.50;64.30;;;;;;20764;6784;117639;-88
2022/08/19 09:16:01;;;;;;;38.22;34.75;;;22.70;63.00;;;;;;20526;6773;311177;-88
2022/08/19 09:18:52;;;;;;;32.03;29.07;;;22.70;63.00;;;;;;20841;6762;118086;-88
2022/08/19 09:21:20;;;;;;;33.80;30.50;;;22.60;62.80;;;;;;20808;6775;118113;-88
2022/08/19 09:23:55;;;;;;;34.03;31.17;;;22.40;63.20;;;;;;20568;6782;311370;-88
2022/08/19 09:26:32;;;;;;;31.55;28.95;;;22.50;62.40;;;;;;20491;6772;339542;-88
2022/08/19 09:29:06;;;;;;;30.33;27.50;;;22.80;61.70;;;;;;20786;6778;117642;-88
2022/08/19 09:31:43;;;;;;;29.90;27.20;;;22.70;61.50;;;;;;20816;6764;117623;-88
2022/08/19 09:34:19;;;;;;;30.53;27.73;;;22.50;62.00;;;;;;20733;6784;118051;-88
2022/08/19 09:36:55;;;;;;;33.13;30.33;;;22.30;62.40;;;;;;20420;6799;281422;-88
2022/08/19 09:39:30;;;;;;;33.33;30.58;;;22.50;62.10;;;;;;20483;6812;336845;-88
2022/08/19 09:42:09;;;;;;;33.13;30.07;;;22.90;61.00;;;;;;20719;6798;119481;-89
2022/08/19 09:44:40;;;;;;;38.50;35.03;;;22.90;61.10;;;;;;20538;6799;310433;-88
2022/08/19 09:47:18;;;;;;;31.73;28.80;;;22.90;61.80;;;;;;20597;6812;119279;-88
2022/08/19 09:49:54;;;;;;;31.60;28.57;;;22.90;61.80;;;;;;20688;6806;118513;-88
2022/08/19 09:52:30;;;;;;;33.53;30.73;;;22.90;62.10;;;;;;20500;6804;310754;-88
2022/08/19 09:55:06;;;;;;;38.90;35.43;;;22.80;62.10;;;;;;20573;6830;306424;-88
2022/08/19 09:57:42;;;;;;;34.27;30.97;;;23.20;61.50;;;;;;20571;6845;118854;-88
2022/08/19 10:00:18;;;;;;;40.35;36.67;;;23.10;61.40;;;;;;20385;6774;308277;-90
2022/08/19 10:03:03;;;;;;;41.37;37.47;;;23.20;61.80;;;;;;20639;6758;336845;-88
2022/08/19 10:05:49;;;;;;;36.80;33.50;;;23.50;61.20;;;;;;20627;6758;279140;-88
2022/08/19 10:08:28;;;;;;;36.47;32.97;;;23.50;61.10;;;;;;20862;6758;117672;-88
2022/08/19 10:11:04;;;;;;;39.58;35.83;;;23.30;61.50;;;;;;20658;6773;316445;-88
2022/08/19 10:13:40;;;;;;;36.40;32.87;;;23.30;62.80;;;;;;20840;6813;117590;-89
2022/08/19 10:16:15;;;;;;;34.67;31.40;;;23.10;62.60;;;;;;20725;6786;119697;-90
2022/08/19 10:18:52;;;;;;;41.60;37.70;;;23.00;63.90;;;;;;20607;6786;306363;-89
2022/08/19 10:21:27;;;;;;;35.97;32.80;;;22.90;63.80;;;;;;20605;6789;276613;-88
2022/08/19 10:24:03;;;;;;;40.15;36.47;;;23.20;62.40;;;;;;20598;6643;306892;-90
2022/08/19 10:26:41;;;;;;;36.03;32.88;;;23.40;62.00;;;;;;20626;6758;308231;-87
2022/08/19 10:29:27;;;;;;;36.17;32.77;;;23.60;60.80;;;;;;21093;6514;90319;-89
2022/08/19 10:31:50;;;;;;;31.93;28.80;;;23.50;61.30;;;;;;20681;6855;121413;-89
2022/08/19 10:34:17;;;;;;;31.07;28.27;;;23.10;62.00;;;;;;20702;6855;118435;-90
2022/08/19 10:36:43;;;;;;;37.63;34.33;;;22.90;62.80;;;;;;20571;6830;306595;-90
2022/08/19 10:39:11;;;;;;;34.93;31.63;;;23.00;62.30;;;;;;20833;6829;117432;-89
2022/08/19 10:41:37;;;;;;;36.07;32.57;;;22.90;62.10;;;;;;20817;6813;120962;-90
2022/08/19 10:44:08;;;;;;;42.10;38.10;;;22.70;62.90;;;;;;20537;6812;304711;-89
2022/08/19 10:46:34;;;;;;;44.37;40.20;;;22.80;64.40;;;;;;20564;6823;277490;-90
2022/08/19 10:48:59;;;;;;;39.93;34.83;;;23.10;64.20;;;;;;20703;6851;118260;-91
2022/08/19 10:54:10;;;;;;;37.92;34.42;;;22.80;64.30;;;;;;20409;6854;286171;-91
2022/08/19 10:56:52;;;;;;;37.00;33.28;;;23.00;64.30;;;;;;20755;6826;117443;-91
2022/08/19 10:59:18;;;;;;;37.97;34.67;;;22.90;63.90;;;;;;20514;6842;278602;-91
2022/08/19 11:01:47;;;;;;;41.17;37.30;;;23.20;63.20;;;;;;20449;6856;337036;-91
2022/08/19 11:04:17;;;;;;;41.03;37.33;;;23.20;63.10;;;;;;20505;6844;307099;-90
2022/08/19 11:06:41;;;;;;;35.13;31.73;;;23.40;62.80;;;;;;20736;6844;117870;-91
2022/08/19 11:09:06;;;;;;;40.90;36.87;;;23.20;62.80;;;;;;20504;6844;318386;-91
2022/08/19 11:11:40;;;;;;;38.53;34.70;;;23.20;62.60;;;;;;20735;6844;121363;-91
2022/08/19 11:13:58;;;;;;;35.77;32.27;;;23.00;62.90;;;;;;20687;6844;120751;-91
2022/08/19 11:16:26;;;;;;;42.77;38.77;;;22.80;63.80;;;;;;20520;6844;292654;-91
2022/08/19 11:18:51;;;;;;;37.60;33.97;;;22.90;64.50;;;;;;20731;6844;117689;-90
2022/08/19 11:21:18;;;;;;;38.90;35.33;;;22.90;63.50;;;;;;20512;6844;308663;-91
2022/08/19 11:23:43;;;;;;;41.83;37.83;;;22.90;63.40;;;;;;20507;6844;312013;-91
2022/08/19 11:26:08;;;;;;;40.27;36.17;;;23.20;63.90;;;;;;20705;6844;117362;-91
2022/08/19 11:28:34;;;;;;;37.47;33.50;;;23.10;63.70;;;;;;20728;6844;117987;-91
2022/08/19 11:30:59;;;;;;;36.10;32.63;;;22.80;64.10;;;;;;20726;6842;120669;-90
2022/08/19 11:33:26;;;;;;;36.47;32.63;;;22.60;64.60;;;;;;20740;6842;117435;-91
2022/08/19 11:35:51;;;;;;;41.83;37.63;;;22.50;65.10;;;;;;20541;6842;277962;-90
2022/08/19 11:38:18;;;;;;;42.25;38.25;;;22.70;65.40;;;;;;20551;6832;306944;-91
2022/08/19 11:40:42;;;;;;;37.83;34.23;;;23.00;65.50;;;;;;20698;6859;116485;-90
2022/08/19 11:43:09;;;;;;;43.05;38.92;;;23.00;64.60;;;;;;20532;6865;293284;-90
2022/08/19 11:45:33;;;;;;;36.13;32.53;;;23.00;64.30;;;;;;20722;6845;117390;-91
2022/08/19 11:48:00;;;;;;;37.73;33.73;;;23.00;64.40;;;;;;20671;6865;118094;-90
2022/08/19 11:50:25;;;;;;;38.70;34.53;;;22.80;64.90;;;;;;20739;6845;118092;-91
2022/08/19 11:52:54;;;;;;;35.78;32.05;;;22.60;65.50;;;;;;20694;6865;116936;-92
2022/08/19 11:55:20;;;;;;;37.23;33.53;;;22.40;65.80;;;;;;20735;6845;116571;-92
2022/08/19 11:57:46;;;;;;;35.67;32.20;;;22.30;66.80;;;;;;20661;6865;120988;-91
2022/08/19 12:00:13;;;;;;;41.78;37.83;;;22.50;68.20;;;;;;20494;6846;307933;-91
2022/08/19 12:02:39;;;;;;;37.37;33.67;;;22.60;67.00;;;;;;20663;6866;118167;-91
2022/08/19 12:05:05;;;;;;;39.70;36.27;;;22.60;67.00;;;;;;20510;6846;312029;-91
2022/08/19 12:07:32;;;;;;;35.55;32.55;;;23.20;64.80;;;;;;20442;6866;338488;-91
2022/08/19 12:09:57;;;;;;;38.53;35.05;;;23.20;64.70;;;;;;20514;6846;337022;-91
2022/08/19 12:12:24;;;;;;;41.13;37.17;;;23.50;63.70;;;;;;20451;6866;310463;-91
2022/08/19 12:14:50;;;;;;;34.45;31.00;;;23.70;63.50;;;;;;20659;6860;117674;-91
2022/08/19 12:17:14;;;;;;;33.87;30.67;;;23.50;63.60;;;;;;20668;6856;119039;-91
2022/08/19 12:19:39;;;;;;;36.90;33.70;;;23.30;64.30;;;;;;20528;6842;308067;-91
2022/08/19 12:22:07;;;;;;;33.23;30.27;;;23.20;64.20;;;;;;20713;6842;127238;-90
2022/08/19 12:24:31;;;;;;;33.63;30.43;;;23.20;64.20;;;;;;20724;6842;117634;-91
2022/08/19 12:38:07;;;;;;;35.13;31.63;;;23.80;64.10;;;;;;21063;6502;90034;-89
2022/08/19 12:40:33;;;;;;;36.67;33.23;;;23.40;65.60;;;;;;20949;6783;118295;-92
2022/08/19 12:42:59;;;;;;;36.73;33.40;;;23.40;65.40;;;;;;20710;6797;276343;-87
2022/08/19 12:45:24;;;;;;;37.53;34.30;;;23.50;65.10;;;;;;20630;6810;307185;-88
2022/08/19 12:47:51;;;;;;;35.10;32.22;;;23.70;64.30;;;;;;20496;6871;281125;-87
2022/08/19 12:50:15;;;;;;;36.07;32.97;;;23.90;62.50;;;;;;20496;6868;290771;-87
2022/08/19 12:52:42;;;;;;;38.95;35.55;;;24.00;62.00;;;;;;20497;6868;337338;-88